createdAt,value
2022-12-08T00:01:41.524Z,47.50
2022-12-08T00:04:10.504Z,47.20
2022-12-08T00:07:01.214Z,41.50
2022-12-08T00:09:37.984Z,39.60
2022-12-08T00:12:16.776Z,39.50
2022-12-08T00:14:47.571Z,35.80
2022-12-08T00:17:16.857Z,41.60
2022-12-08T00:19:45.196Z,44.10
2022-12-08T00:22:14.666Z,43.40
2022-12-08T00:24:45.630Z,36.70
2022-12-08T00:27:15.923Z,38.90
2022-12-08T00:29:45.686Z,43.00
2022-12-08T00:32:14.216Z,40.80
2022-12-08T00:34:42.370Z,40.60
2022-12-08T00:37:10.533Z,45.50
2022-12-08T00:39:38.671Z,42.20
2022-12-08T00:42:12.713Z,45.00
2022-12-08T00:44:46.026Z,56.40
2022-12-08T00:47:14.798Z,60.40
2022-12-08T00:49:43.006Z,58.60
2022-12-08T00:52:12.702Z,65.90
2022-12-08T00:54:40.811Z,69.90
2022-12-08T00:57:08.918Z,76.50
2022-12-08T00:59:37.015Z,76.50
2022-12-08T01:02:05.120Z,74.10
2022-12-08T01:06:50.701Z,93.00
2022-12-08T01:09:19.444Z,94.00
2022-12-08T01:11:48.893Z,90.20
2022-12-08T01:14:17.287Z,82.20
2022-12-08T01:16:45.806Z,89.10
2022-12-08T01:19:16.790Z,85.40
2022-12-08T01:21:46.493Z,70.10
2022-12-08T01:24:19.368Z,79.40
2022-12-08T01:26:49.826Z,74.40
2022-12-08T01:29:18.349Z,68.80
2022-12-08T01:31:46.585Z,76.80
2022-12-08T01:34:15.034Z,76.30
2022-12-08T01:36:44.575Z,88.00
2022-12-08T01:39:19.567Z,77.30
2022-12-08T01:41:48.006Z,80.10
2022-12-08T01:44:16.106Z,73.40
2022-12-08T01:46:48.597Z,61.80
2022-12-08T01:49:32.661Z,59.80
2022-12-08T01:52:42.187Z,53.40
2022-12-08T01:55:23.070Z,57.50
2022-12-08T01:57:58.910Z,50.70
2022-12-08T02:00:27.115Z,55.20
2022-12-08T02:03:12.049Z,56.30
2022-12-08T02:05:41.935Z,53.80
2022-12-08T02:08:13.313Z,56.70
2022-12-08T02:10:43.455Z,53.40
2022-12-08T02:13:16.839Z,50.80
2022-12-08T02:16:38.435Z,53.20
2022-12-08T02:19:49.360Z,59.20
2022-12-08T02:22:33.779Z,55.40
2022-12-08T02:25:01.865Z,49.70
2022-12-08T02:27:46.835Z,53.70
2022-12-08T02:30:47.168Z,64.90
2022-12-08T02:33:37.014Z,56.50
2022-12-08T02:36:57.595Z,52.40
2022-12-08T02:39:36.070Z,46.80
2022-12-08T02:42:08.247Z,47.30
2022-12-08T02:44:43.799Z,44.50
2022-12-08T02:47:18.263Z,38.80
2022-12-08T02:49:47.212Z,32.00
2022-12-08T02:52:15.315Z,50.20
2022-12-08T02:54:56.880Z,53.70
2022-12-08T02:57:52.600Z,53.00
2022-12-08T03:00:23.777Z,59.80
2022-12-08T03:03:23.997Z,55.00
2022-12-08T03:06:10.488Z,51.10
2022-12-08T03:09:10.494Z,56.40
2022-12-08T03:11:50.437Z,52.70
2022-12-08T03:14:20.588Z,48.70
2022-12-08T03:16:53.733Z,59.80
2022-12-08T03:22:03.500Z,54.90
2022-12-08T03:24:37.383Z,52.60
2022-12-08T03:27:14.744Z,54.10
2022-12-08T03:29:43.499Z,51.60
2022-12-08T03:32:30.679Z,67.90
2022-12-08T03:35:04.776Z,57.50
2022-12-08T03:37:36.717Z,57.90
2022-12-08T03:40:08.184Z,60.10
2022-12-08T03:42:36.348Z,58.20
2022-12-08T03:45:06.053Z,51.20
2022-12-08T03:47:34.254Z,55.90
2022-12-08T03:50:02.794Z,54.50
2022-12-08T03:52:31.165Z,52.80
2022-12-08T03:54:59.351Z,52.70
2022-12-08T03:57:27.500Z,48.60
2022-12-08T03:59:55.655Z,48.70
2022-12-08T04:02:23.936Z,55.80
2022-12-08T04:04:52.134Z,44.90
2022-12-08T04:07:20.238Z,43.60
2022-12-08T04:09:48.345Z,42.30
2022-12-08T04:12:16.478Z,44.40
2022-12-08T04:14:44.711Z,39.00
2022-12-08T04:17:12.910Z,36.60
2022-12-08T04:19:41.055Z,37.40
2022-12-08T04:22:09.186Z,41.50
2022-12-08T04:24:37.340Z,42.90
2022-12-08T04:27:05.514Z,40.70
2022-12-08T04:29:33.704Z,39.20
2022-12-08T04:32:01.857Z,45.30
2022-12-08T04:34:30.215Z,49.50
2022-12-08T04:36:58.367Z,42.10
2022-12-08T04:39:26.481Z,44.70
2022-12-08T04:41:54.735Z,39.50
2022-12-08T04:44:22.883Z,40.60
2022-12-08T04:46:51.064Z,39.80
2022-12-08T04:49:19.235Z,44.90
2022-12-08T04:51:47.395Z,44.00
2022-12-08T04:54:15.537Z,43.10
2022-12-08T04:56:43.704Z,48.20
2022-12-08T04:59:11.878Z,43.90
2022-12-08T05:01:40.136Z,42.70
2022-12-08T05:04:08.438Z,49.40
2022-12-08T05:06:36.559Z,42.70
2022-12-08T05:09:04.793Z,48.90
2022-12-08T05:11:32.989Z,52.60
2022-12-08T05:14:01.113Z,46.50
2022-12-08T05:16:29.328Z,44.00
2022-12-08T05:18:57.516Z,44.90
2022-12-08T05:21:25.667Z,44.70
2022-12-08T05:23:53.959Z,46.60
2022-12-08T05:26:22.114Z,44.90
2022-12-08T05:28:50.330Z,50.30
2022-12-08T05:31:18.918Z,55.20
2022-12-08T05:33:50.064Z,50.50
2022-12-08T05:36:19.237Z,44.60
2022-12-08T05:38:47.740Z,50.20
2022-12-08T05:41:21.081Z,56.90
2022-12-08T05:43:49.283Z,54.00
2022-12-08T05:46:27.889Z,51.20
2022-12-08T05:48:56.168Z,61.00
2022-12-08T05:51:24.579Z,55.40
2022-12-08T05:53:53.255Z,58.50
2022-12-08T05:56:22.488Z,52.00
2022-12-08T05:58:51.337Z,50.30
2022-12-08T06:01:27.439Z,57.50
2022-12-08T06:03:58.155Z,52.90
2022-12-08T06:06:26.615Z,62.70
2022-12-08T06:08:55.231Z,57.20
2022-12-08T06:11:30.271Z,53.00
2022-12-08T06:13:59.140Z,60.80
2022-12-08T06:16:28.882Z,58.80
2022-12-08T06:18:57.439Z,62.00
2022-12-08T06:21:25.623Z,56.20
2022-12-08T06:23:55.104Z,56.10
2022-12-08T06:26:23.446Z,59.30
2022-12-08T06:28:52.386Z,53.50
2022-12-08T06:31:24.722Z,63.60
2022-12-08T06:33:54.577Z,58.60
2022-12-08T06:36:26.551Z,54.60
2022-12-08T06:38:56.049Z,63.90
2022-12-08T06:41:25.905Z,50.30
2022-12-08T06:43:57.609Z,49.80
2022-12-08T06:46:25.829Z,53.40
2022-12-08T06:48:54.433Z,53.40
2022-12-08T06:51:25.715Z,56.80
2022-12-08T06:53:53.834Z,55.20
2022-12-08T06:56:23.995Z,54.60
2022-12-08T06:58:53.231Z,56.20
2022-12-08T07:01:21.686Z,60.00
2022-12-08T07:03:49.960Z,79.60
2022-12-08T07:06:24.375Z,96.80
2022-12-08T07:08:52.719Z,98.00
2022-12-08T07:11:22.327Z,102.50
2022-12-08T07:13:51.224Z,118.30
2022-12-08T07:16:19.645Z,96.90
2022-12-08T07:18:48.101Z,107.10
2022-12-08T07:21:17.961Z,99.20
2022-12-08T07:23:50.247Z,99.60
2022-12-08T07:26:22.380Z,93.50
2022-12-08T07:28:50.486Z,95.00
2022-12-08T07:31:26.042Z,92.70
2022-12-08T07:33:56.347Z,104.70
2022-12-08T07:36:25.315Z,97.90
2022-12-08T07:38:53.897Z,106.80
2022-12-08T07:41:25.810Z,108.90
2022-12-08T07:43:54.231Z,97.70
2022-12-08T07:46:25.495Z,89.70
2022-12-08T07:48:55.304Z,96.40
2022-12-08T07:51:25.015Z,82.40
2022-12-08T07:53:55.132Z,79.40
2022-12-08T07:56:23.528Z,72.10
2022-12-08T07:58:51.681Z,66.10
2022-12-08T08:01:22.871Z,65.50
2022-12-08T08:03:51.639Z,73.30
2022-12-08T08:06:19.737Z,77.00
2022-12-08T08:08:48.026Z,71.20
2022-12-08T08:11:20.868Z,67.90
2022-12-08T08:13:51.599Z,76.00
2022-12-08T08:16:21.190Z,66.90
2022-12-08T08:18:51.209Z,67.30
2022-12-08T08:24:09.244Z,78.80
2022-12-08T08:26:38.184Z,63.10
2022-12-08T08:29:06.334Z,51.40
2022-12-08T08:31:34.687Z,50.90
2022-12-08T08:34:06.359Z,50.20
2022-12-08T08:36:35.636Z,48.50
2022-12-08T08:39:04.709Z,41.90
2022-12-08T08:41:33.290Z,52.20
2022-12-08T08:44:01.546Z,54.70
2022-12-08T08:46:29.843Z,48.10
2022-12-08T08:48:58.606Z,42.90
2022-12-08T08:51:26.976Z,53.40
2022-12-08T08:53:55.094Z,51.80
2022-12-08T08:56:23.394Z,43.70
2022-12-08T08:58:53.337Z,42.00
2022-12-08T09:01:25.483Z,45.80
2022-12-08T09:03:55.164Z,46.20
2022-12-08T09:06:24.771Z,60.60
2022-12-08T09:08:53.033Z,67.90
2022-12-08T09:11:23.553Z,69.30
2022-12-08T09:13:53.489Z,63.30
2022-12-08T09:16:22.349Z,58.80
2022-12-08T09:18:50.969Z,58.90
2022-12-08T09:21:24.260Z,58.90
2022-12-08T09:26:27.881Z,52.80
2022-12-08T09:28:57.147Z,61.30
2022-12-08T09:31:25.744Z,54.10
2022-12-08T09:33:54.169Z,54.10
2022-12-08T09:36:22.367Z,55.80
2022-12-08T09:38:51.754Z,43.30
2022-12-08T09:41:40.220Z,39.00
2022-12-08T09:44:49.202Z,37.30
2022-12-08T09:47:37.998Z,41.30
2022-12-08T09:50:30.561Z,35.10
2022-12-08T09:53:54.888Z,33.90
2022-12-08T09:56:30.086Z,32.20
2022-12-08T09:59:04.053Z,39.00
2022-12-08T10:01:38.366Z,34.20
2022-12-08T10:04:22.214Z,35.50
2022-12-08T10:07:02.531Z,34.80
2022-12-08T10:09:48.856Z,38.20
2022-12-08T10:12:50.808Z,37.40
2022-12-08T10:16:02.055Z,43.40
2022-12-08T10:18:33.546Z,42.80
2022-12-08T10:21:22.320Z,43.40
2022-12-08T10:23:55.726Z,44.30
2022-12-08T10:26:24.558Z,49.10
2022-12-08T10:28:52.731Z,47.40
2022-12-08T10:31:24.406Z,44.60
2022-12-08T10:34:15.687Z,41.60
2022-12-08T10:36:59.245Z,45.60
2022-12-08T10:42:17.288Z,34.60
2022-12-08T10:44:57.699Z,39.80
2022-12-08T10:47:28.664Z,36.80
2022-12-08T10:50:15.597Z,44.50
2022-12-08T10:52:43.729Z,40.80
2022-12-08T10:55:18.786Z,38.40
2022-12-08T10:57:49.114Z,38.70
2022-12-08T11:00:28.271Z,40.70
2022-12-08T11:03:04.314Z,48.40
2022-12-08T11:05:35.491Z,40.90
2022-12-08T11:08:05.898Z,40.80
2022-12-08T11:10:44.110Z,39.80
2022-12-08T11:13:42.161Z,40.70
2022-12-08T11:16:15.476Z,45.30
2022-12-08T11:18:48.112Z,45.80
2022-12-08T11:21:19.291Z,40.10
2022-12-08T11:23:50.410Z,44.70
2022-12-08T11:26:31.777Z,44.70
2022-12-08T11:28:59.968Z,42.10
2022-12-08T11:31:42.379Z,41.50
2022-12-08T11:34:31.334Z,45.30
2022-12-08T11:36:59.796Z,43.10
2022-12-08T11:39:31.581Z,36.70
2022-12-08T11:42:04.087Z,43.00
2022-12-08T11:44:50.565Z,42.50
2022-12-08T11:47:31.852Z,43.80
2022-12-08T11:50:40.981Z,46.50
2022-12-08T11:53:52.333Z,37.60
2022-12-08T11:56:33.615Z,41.30
2022-12-08T11:59:11.129Z,38.60
2022-12-08T12:01:42.488Z,37.90
2022-12-08T12:04:19.038Z,38.70
2022-12-08T12:07:26.556Z,37.10
2022-12-08T12:10:20.236Z,34.90
2022-12-08T12:13:15.514Z,35.80
2022-12-08T12:15:55.696Z,31.70
2022-12-08T12:18:46.411Z,37.10
2022-12-08T12:21:30.672Z,36.10
2022-12-08T12:24:06.584Z,39.40
2022-12-08T12:26:39.519Z,41.80
2022-12-08T12:29:21.077Z,40.90
2022-12-08T12:31:56.077Z,46.60
2022-12-08T12:34:59.013Z,47.90
2022-12-08T12:37:38.787Z,44.60
2022-12-08T12:40:20.694Z,41.00
2022-12-08T12:43:09.835Z,43.50
2022-12-08T12:45:44.016Z,45.90
2022-12-08T12:48:25.388Z,44.10
2022-12-08T12:50:55.344Z,40.30
2022-12-08T12:53:24.380Z,42.70
2022-12-08T12:56:00.083Z,38.20
2022-12-08T12:58:30.429Z,40.30
2022-12-08T13:01:11.477Z,44.00
2022-12-08T13:04:06.227Z,47.60
2022-12-08T13:06:46.006Z,41.10
2022-12-08T13:09:39.290Z,39.80
2022-12-08T13:12:20.105Z,40.30
2022-12-08T13:14:51.226Z,43.70
2022-12-08T13:17:45.510Z,41.20
2022-12-08T13:20:24.130Z,40.60
2022-12-08T13:23:13.779Z,39.10
2022-12-08T13:25:47.737Z,43.60
2022-12-08T13:28:15.935Z,47.10
2022-12-08T13:30:47.064Z,43.70
2022-12-08T13:33:39.497Z,42.50
2022-12-08T13:36:19.046Z,44.40
2022-12-08T13:38:50.623Z,36.30
2022-12-08T13:41:44.466Z,44.70
2022-12-08T13:45:21.480Z,34.70
2022-12-08T13:48:23.295Z,40.70
2022-12-08T13:57:09.966Z,41.20
2022-12-08T13:59:45.184Z,36.70
2022-12-08T14:02:33.245Z,38.30
2022-12-08T14:05:19.833Z,33.80
2022-12-08T14:07:53.958Z,37.70
2022-12-08T14:10:29.360Z,35.00
2022-12-08T14:13:12.496Z,37.90
2022-12-08T14:15:40.954Z,37.30
2022-12-08T14:18:31.377Z,38.90
2022-12-08T14:21:20.943Z,39.10
2022-12-08T14:23:49.863Z,39.40
2022-12-08T14:26:18.183Z,38.40
2022-12-08T14:28:46.498Z,42.00
2022-12-08T14:31:17.247Z,44.60
2022-12-08T14:33:49.367Z,43.90
2022-12-08T14:36:21.884Z,45.90
2022-12-08T14:38:53.383Z,42.20
2022-12-08T14:41:32.050Z,46.30
2022-12-08T14:44:02.265Z,33.70
2022-12-08T14:46:30.738Z,40.00
2022-12-08T14:49:02.094Z,37.80
2022-12-08T14:51:33.235Z,37.20
2022-12-08T14:54:08.525Z,39.90
2022-12-08T14:56:52.369Z,38.10
2022-12-08T14:59:36.776Z,38.50
2022-12-08T15:02:21.807Z,34.90
2022-12-08T15:05:12.770Z,42.00
2022-12-08T15:07:54.231Z,42.10
2022-12-08T15:10:26.712Z,41.80
2022-12-08T15:13:03.879Z,111.50
2022-12-08T15:16:02.824Z,358.50
2022-12-08T15:18:40.996Z,117.30
2022-12-08T15:21:13.019Z,57.00
2022-12-08T15:23:45.743Z,43.20
2022-12-08T15:26:21.454Z,39.30
2022-12-08T15:28:50.198Z,44.20
2022-12-08T15:31:18.767Z,38.90
2022-12-08T15:33:47.518Z,36.10
2022-12-08T15:36:15.800Z,38.20
2022-12-08T15:38:44.014Z,38.20
2022-12-08T15:41:15.163Z,39.40
2022-12-08T15:43:44.587Z,53.00
2022-12-08T15:46:13.105Z,110.40
2022-12-08T15:48:41.759Z,71.90
2022-12-08T15:51:10.106Z,48.60
2022-12-08T15:53:38.356Z,42.30
2022-12-08T15:58:57.672Z,43.20
2022-12-08T16:01:27.387Z,62.60
2022-12-08T16:07:21.039Z,107.20
2022-12-08T16:09:41.525Z,76.00
2022-12-08T16:16:01.083Z,42.00
2022-12-08T16:18:36.109Z,48.50
2022-12-08T16:21:12.382Z,71.10
2022-12-08T16:23:51.083Z,86.40
2022-12-08T16:29:20.401Z,53.00
2022-12-08T16:31:49.403Z,46.80
2022-12-08T16:34:17.628Z,52.90
2022-12-08T16:36:45.788Z,49.90
2022-12-08T16:39:14.600Z,69.20
2022-12-08T16:42:01.437Z,48.40
2022-12-08T16:44:29.621Z,46.00
2022-12-08T16:46:57.816Z,48.60
2022-12-08T16:49:25.983Z,48.50
2022-12-08T16:51:54.212Z,51.80
2022-12-08T16:54:22.505Z,84.20
2022-12-08T16:56:50.958Z,98.60
2022-12-08T16:59:19.202Z,94.20
2022-12-08T17:01:47.521Z,161.80
2022-12-08T17:04:31.495Z,125.10
2022-12-08T17:07:00.454Z,55.70
2022-12-08T17:09:30.932Z,45.30
2022-12-08T17:12:03.690Z,43.00
2022-12-08T17:14:36.340Z,53.90
2022-12-08T17:17:04.964Z,46.70
2022-12-08T17:19:33.956Z,42.60
2022-12-08T17:22:04.953Z,45.40
2022-12-08T17:24:34.360Z,50.30
2022-12-08T17:27:04.240Z,101.60
2022-12-08T17:29:34.226Z,48.00
2022-12-08T17:32:02.616Z,40.30
2022-12-08T17:34:31.110Z,39.80
2022-12-08T17:36:59.385Z,36.00
2022-12-08T17:39:27.616Z,41.30
2022-12-08T17:41:55.718Z,39.40
2022-12-08T17:44:24.111Z,40.60
2022-12-08T17:46:53.372Z,38.80
2022-12-08T17:49:25.867Z,42.60
2022-12-08T17:51:56.068Z,44.00
2022-12-08T17:54:24.828Z,56.60
2022-12-08T17:56:54.125Z,51.70
2022-12-08T17:59:22.310Z,46.00
2022-12-08T18:01:53.430Z,49.50
2022-12-08T18:04:22.272Z,42.50
2022-12-08T18:06:50.698Z,48.50
2022-12-08T18:09:19.729Z,46.80
2022-12-08T18:11:48.016Z,53.40
2022-12-08T18:14:16.623Z,44.40
2022-12-08T18:16:46.608Z,40.60
2022-12-08T18:19:15.856Z,39.40
2022-12-08T18:21:44.634Z,38.50
2022-12-08T18:24:22.092Z,42.80
2022-12-08T18:26:52.417Z,38.70
2022-12-08T18:29:22.745Z,41.60
2022-12-08T18:31:52.108Z,37.50
2022-12-08T18:34:20.767Z,47.30
2022-12-08T18:36:49.227Z,44.80
2022-12-08T18:39:26.991Z,42.20
2022-12-08T18:41:57.532Z,42.60
2022-12-08T18:44:25.798Z,43.00
2022-12-08T18:46:54.299Z,39.10
2022-12-08T18:49:22.558Z,40.10
2022-12-08T18:51:50.701Z,43.10
2022-12-08T18:54:21.984Z,49.00
2022-12-08T18:56:52.602Z,43.00
2022-12-08T18:59:22.871Z,42.00
2022-12-08T19:01:51.156Z,69.40
2022-12-08T19:04:28.480Z,81.60
2022-12-08T19:06:57.830Z,47.80
2022-12-08T19:09:26.981Z,43.00
2022-12-08T19:11:56.697Z,44.40
2022-12-08T19:14:28.394Z,70.40
2022-12-08T19:16:57.840Z,42.60
2022-12-08T19:19:27.701Z,29.40
2022-12-08T19:21:56.949Z,28.10
2022-12-08T19:24:25.636Z,34.00
2022-12-08T19:26:53.932Z,33.60
2022-12-08T19:29:22.160Z,29.70
2022-12-08T19:31:50.485Z,24.60
2022-12-08T19:34:19.287Z,26.50
2022-12-08T19:36:48.029Z,25.50
2022-12-08T19:39:42.257Z,22.60
2022-12-08T19:42:38.720Z,27.80
2022-12-08T19:45:17.285Z,28.20
2022-12-08T19:47:45.683Z,34.40
2022-12-08T19:53:26.164Z,34.80
2022-12-08T19:55:53.416Z,26.20
2022-12-08T19:58:20.255Z,32.20
2022-12-08T20:00:47.199Z,30.80
2022-12-08T20:03:20.542Z,32.20
2022-12-08T20:05:50.346Z,31.40
2022-12-08T20:08:17.214Z,45.30
2022-12-08T20:10:44.573Z,39.20
2022-12-08T20:13:31.200Z,39.20
2022-12-08T20:15:58.393Z,37.90
2022-12-08T20:18:25.216Z,42.80
2022-12-08T20:20:51.981Z,41.50
2022-12-08T20:23:18.785Z,53.10
2022-12-08T20:25:47.057Z,49.00
2022-12-08T20:28:14.479Z,45.90
2022-12-08T20:30:42.090Z,47.80
2022-12-08T20:33:12.934Z,45.40
2022-12-08T20:35:40.285Z,47.20
2022-12-08T20:38:07.589Z,45.60
2022-12-08T20:40:34.474Z,50.00
2022-12-08T20:43:01.851Z,50.80
2022-12-08T20:45:28.628Z,51.00
2022-12-08T20:47:55.396Z,46.50
2022-12-08T20:50:22.302Z,39.70
2022-12-08T20:52:49.098Z,40.70
2022-12-08T20:55:15.971Z,41.00
2022-12-08T20:57:43.021Z,48.10
2022-12-08T21:00:11.250Z,47.90
2022-12-08T21:02:43.220Z,56.00
2022-12-08T21:05:14.226Z,44.50
2022-12-08T21:07:41.607Z,47.90
2022-12-08T21:10:09.864Z,45.00
2022-12-08T21:12:37.183Z,61.30
2022-12-08T21:15:07.068Z,58.80
2022-12-08T21:17:33.946Z,49.30
2022-12-08T21:20:00.911Z,65.90
2022-12-08T21:22:28.013Z,62.80
2022-12-08T21:24:56.343Z,44.40
2022-12-08T21:27:23.151Z,58.10
2022-12-08T21:29:49.995Z,47.90
2022-12-08T21:32:16.840Z,40.00
2022-12-08T21:34:44.933Z,31.30
2022-12-08T21:37:12.734Z,37.70
2022-12-08T21:39:39.763Z,34.60
2022-12-08T21:42:30.698Z,32.70
2022-12-08T21:45:00.671Z,38.70
2022-12-08T21:47:27.968Z,36.30
2022-12-08T21:49:54.849Z,41.20
2022-12-08T21:52:21.742Z,94.60
2022-12-08T21:54:48.547Z,88.70
2022-12-08T21:57:15.355Z,40.30
2022-12-08T21:59:42.225Z,204.70
2022-12-08T22:02:19.444Z,168.40
2022-12-08T22:04:49.947Z,108.50
2022-12-08T22:07:17.738Z,111.30
2022-12-08T22:09:44.922Z,207.00
2022-12-08T22:12:12.881Z,150.00
2022-12-08T22:14:39.935Z,142.90
2022-12-08T22:17:07.205Z,73.90
2022-12-08T22:19:34.835Z,40.70
2022-12-08T22:22:01.902Z,43.10
2022-12-08T22:24:30.169Z,51.10
2022-12-08T22:26:57.143Z,45.70
2022-12-08T22:29:24.139Z,41.70
2022-12-08T22:31:50.933Z,32.80
2022-12-08T22:34:17.802Z,34.00
2022-12-08T22:36:44.944Z,31.40
2022-12-08T22:39:11.868Z,43.00
2022-12-08T22:41:38.827Z,33.60
2022-12-08T22:44:06.696Z,38.80
2022-12-08T22:46:34.342Z,34.60
2022-12-08T22:49:02.018Z,41.40
2022-12-08T22:51:29.087Z,49.10
2022-12-08T22:53:56.019Z,41.30
2022-12-08T22:56:22.873Z,44.30
2022-12-08T22:58:50.697Z,33.70
2022-12-08T23:01:24.773Z,33.00
2022-12-08T23:03:51.826Z,39.10
2022-12-08T23:06:19.274Z,36.40
2022-12-08T23:08:46.531Z,57.30
2022-12-08T23:11:13.598Z,53.90
2022-12-08T23:13:40.783Z,57.50
2022-12-08T23:16:09.913Z,41.10
2022-12-08T23:18:40.526Z,38.70
2022-12-08T23:21:11.602Z,50.50
2022-12-08T23:23:38.788Z,50.10
2022-12-08T23:26:16.537Z,51.40
2022-12-08T23:28:43.601Z,63.30
2022-12-08T23:31:10.551Z,60.40
2022-12-08T23:33:37.311Z,57.30
2022-12-08T23:36:04.475Z,41.30
2022-12-08T23:38:31.346Z,37.90
2022-12-08T23:41:04.289Z,42.60
2022-12-08T23:43:31.343Z,57.40
2022-12-08T23:45:58.170Z,85.70
2022-12-08T23:48:27.495Z,58.70
2022-12-08T23:50:56.460Z,74.70
2022-12-08T23:53:23.337Z,48.90
2022-12-08T23:55:50.191Z,38.20
2022-12-08T23:58:17.014Z,36.30
